sensor_id;sensor_type;location;lat;lon;timestamp;P1;durP1;ratioP1;P2;durP2;ratioP2
54201;SDS011;40108;53.152;5.844;2024-01-30T00:01:26;33.65;;;25.00;;
54201;SDS011;40108;53.152;5.844;2024-01-30T00:03:52;34.55;;;24.17;;
54201;SDS011;40108;53.152;5.844;2024-01-30T00:06:20;34.65;;;24.77;;
54201;SDS011;40108;53.152;5.844;2024-01-30T00:08:46;31.90;;;23.70;;
54201;SDS011;40108;53.152;5.844;2024-01-30T00:11:14;33.50;;;23.98;;
54201;SDS011;40108;53.152;5.844;2024-01-30T00:13:40;34.50;;;25.00;;
54201;SDS011;40108;53.152;5.844;2024-01-30T00:16:06;35.65;;;24.40;;
54201;SDS011;40108;53.152;5.844;2024-01-30T00:18:32;35.05;;;24.48;;
54201;SDS011;40108;53.152;5.844;2024-01-30T00:20:57;36.55;;;25.15;;
54201;SDS011;40108;53.152;5.844;2024-01-30T00:23:23;33.80;;;24.00;;
54201;SDS011;40108;53.152;5.844;2024-01-30T00:25:50;33.80;;;24.73;;
54201;SDS011;40108;53.152;5.844;2024-01-30T00:28:15;33.95;;;25.73;;
54201;SDS011;40108;53.152;5.844;2024-01-30T00:30:41;37.60;;;25.90;;
54201;SDS011;40108;53.152;5.844;2024-01-30T00:33:08;39.33;;;26.45;;
54201;SDS011;40108;53.152;5.844;2024-01-30T00:35:34;36.78;;;24.65;;
54201;SDS011;40108;53.152;5.844;2024-01-30T00:37:59;36.70;;;25.67;;
54201;SDS011;40108;53.152;5.844;2024-01-30T00:40:25;38.88;;;26.48;;
54201;SDS011;40108;53.152;5.844;2024-01-30T00:42:51;36.72;;;24.88;;
54201;SDS011;40108;53.152;5.844;2024-01-30T00:45:17;36.28;;;25.20;;
54201;SDS011;40108;53.152;5.844;2024-01-30T00:47:43;36.00;;;25.13;;
54201;SDS011;40108;53.152;5.844;2024-01-30T00:50:09;35.35;;;25.35;;
54201;SDS011;40108;53.152;5.844;2024-01-30T00:52:34;42.17;;;25.98;;
54201;SDS011;40108;53.152;5.844;2024-01-30T00:55:00;40.03;;;26.05;;
54201;SDS011;40108;53.152;5.844;2024-01-30T00:57:27;38.83;;;25.33;;
54201;SDS011;40108;53.152;5.844;2024-01-30T00:59:53;37.65;;;25.30;;
54201;SDS011;40108;53.152;5.844;2024-01-30T01:02:19;34.63;;;25.45;;
54201;SDS011;40108;53.152;5.844;2024-01-30T01:04:44;38.22;;;25.83;;
54201;SDS011;40108;53.152;5.844;2024-01-30T01:07:10;39.78;;;26.17;;
54201;SDS011;40108;53.152;5.844;2024-01-30T01:09:36;41.88;;;25.95;;
54201;SDS011;40108;53.152;5.844;2024-01-30T01:12:02;37.47;;;26.13;;
54201;SDS011;40108;53.152;5.844;2024-01-30T01:14:29;37.47;;;25.83;;
54201;SDS011;40108;53.152;5.844;2024-01-30T01:16:54;43.55;;;27.90;;
54201;SDS011;40108;53.152;5.844;2024-01-30T01:19:20;35.70;;;26.45;;
54201;SDS011;40108;53.152;5.844;2024-01-30T01:21:46;44.08;;;26.92;;
54201;SDS011;40108;53.152;5.844;2024-01-30T01:24:12;36.38;;;26.33;;
54201;SDS011;40108;53.152;5.844;2024-01-30T01:26:37;36.97;;;26.77;;
54201;SDS011;40108;53.152;5.844;2024-01-30T01:29:03;41.72;;;26.98;;
54201;SDS011;40108;53.152;5.844;2024-01-30T01:31:37;42.97;;;26.58;;
54201;SDS011;40108;53.152;5.844;2024-01-30T01:34:12;37.88;;;26.92;;
54201;SDS011;40108;53.152;5.844;2024-01-30T01:36:38;39.97;;;27.58;;
54201;SDS011;40108;53.152;5.844;2024-01-30T01:39:04;38.85;;;27.60;;
54201;SDS011;40108;53.152;5.844;2024-01-30T01:41:30;40.92;;;26.95;;
54201;SDS011;40108;53.152;5.844;2024-01-30T01:43:57;45.22;;;28.50;;
54201;SDS011;40108;53.152;5.844;2024-01-30T01:46:23;39.08;;;26.40;;
54201;SDS011;40108;53.152;5.844;2024-01-30T01:48:51;40.58;;;26.55;;
54201;SDS011;40108;53.152;5.844;2024-01-30T01:51:17;38.63;;;28.38;;
54201;SDS011;40108;53.152;5.844;2024-01-30T01:53:43;40.80;;;28.13;;
54201;SDS011;40108;53.152;5.844;2024-01-30T01:56:10;39.95;;;27.52;;
54201;SDS011;40108;53.152;5.844;2024-01-30T01:58:36;38.53;;;27.48;;
54201;SDS011;40108;53.152;5.844;2024-01-30T02:01:02;40.25;;;26.92;;
54201;SDS011;40108;53.152;5.844;2024-01-30T02:03:30;42.40;;;28.25;;
54201;SDS011;40108;53.152;5.844;2024-01-30T02:05:55;38.20;;;26.63;;
54201;SDS011;40108;53.152;5.844;2024-01-30T02:08:22;40.85;;;27.10;;
54201;SDS011;40108;53.152;5.844;2024-01-30T02:10:49;40.75;;;28.58;;
54201;SDS011;40108;53.152;5.844;2024-01-30T02:13:14;41.70;;;27.50;;
54201;SDS011;40108;53.152;5.844;2024-01-30T02:15:40;39.30;;;27.52;;
54201;SDS011;40108;53.152;5.844;2024-01-30T02:18:06;39.90;;;28.10;;
54201;SDS011;40108;53.152;5.844;2024-01-30T02:20:31;41.33;;;27.67;;
54201;SDS011;40108;53.152;5.844;2024-01-30T02:23:00;37.45;;;27.63;;
54201;SDS011;40108;53.152;5.844;2024-01-30T02:25:33;37.05;;;26.83;;
54201;SDS011;40108;53.152;5.844;2024-01-30T02:28:09;38.03;;;27.27;;
54201;SDS011;40108;53.152;5.844;2024-01-30T02:30:37;40.45;;;26.90;;
54201;SDS011;40108;53.152;5.844;2024-01-30T02:33:02;40.75;;;26.90;;
54201;SDS011;40108;53.152;5.844;2024-01-30T02:35:28;36.38;;;25.73;;
54201;SDS011;40108;53.152;5.844;2024-01-30T02:37:54;34.85;;;26.23;;
54201;SDS011;40108;53.152;5.844;2024-01-30T02:40:20;36.42;;;25.83;;
54201;SDS011;40108;53.152;5.844;2024-01-30T02:42:45;39.65;;;26.60;;
54201;SDS011;40108;53.152;5.844;2024-01-30T02:45:11;38.33;;;25.65;;
54201;SDS011;40108;53.152;5.844;2024-01-30T02:47:38;37.58;;;25.55;;
54201;SDS011;40108;53.152;5.844;2024-01-30T02:50:04;35.75;;;26.73;;
54201;SDS011;40108;53.152;5.844;2024-01-30T02:52:30;36.53;;;25.33;;
54201;SDS011;40108;53.152;5.844;2024-01-30T02:54:56;34.67;;;24.65;;
54201;SDS011;40108;53.152;5.844;2024-01-30T02:57:21;37.40;;;26.00;;
54201;SDS011;40108;53.152;5.844;2024-01-30T02:59:47;37.65;;;25.25;;
54201;SDS011;40108;53.152;5.844;2024-01-30T03:02:13;35.42;;;24.98;;
54201;SDS011;40108;53.152;5.844;2024-01-30T03:04:40;34.30;;;24.38;;
54201;SDS011;40108;53.152;5.844;2024-01-30T03:07:06;35.60;;;23.95;;
54201;SDS011;40108;53.152;5.844;2024-01-30T03:09:32;37.88;;;24.98;;
54201;SDS011;40108;53.152;5.844;2024-01-30T03:11:58;33.80;;;24.00;;
54201;SDS011;40108;53.152;5.844;2024-01-30T03:14:24;35.58;;;24.35;;
54201;SDS011;40108;53.152;5.844;2024-01-30T03:16:50;33.13;;;22.98;;
54201;SDS011;40108;53.152;5.844;2024-01-30T03:19:15;32.97;;;23.65;;
54201;SDS011;40108;53.152;5.844;2024-01-30T03:21:41;35.33;;;23.00;;
54201;SDS011;40108;53.152;5.844;2024-01-30T03:24:07;33.78;;;23.55;;
54201;SDS011;40108;53.152;5.844;2024-01-30T03:26:32;33.10;;;23.65;;
54201;SDS011;40108;53.152;5.844;2024-01-30T03:28:58;34.97;;;25.00;;
54201;SDS011;40108;53.152;5.844;2024-01-30T03:31:24;35.78;;;23.52;;
54201;SDS011;40108;53.152;5.844;2024-01-30T03:33:49;33.58;;;23.50;;
54201;SDS011;40108;53.152;5.844;2024-01-30T03:36:15;32.45;;;23.45;;
54201;SDS011;40108;53.152;5.844;2024-01-30T03:38:41;31.52;;;22.77;;
54201;SDS011;40108;53.152;5.844;2024-01-30T03:41:07;36.17;;;23.58;;
54201;SDS011;40108;53.152;5.844;2024-01-30T03:43:34;33.20;;;23.77;;
54201;SDS011;40108;53.152;5.844;2024-01-30T03:46:01;34.25;;;22.65;;
54201;SDS011;40108;53.152;5.844;2024-01-30T03:48:27;35.20;;;23.15;;
54201;SDS011;40108;53.152;5.844;2024-01-30T03:50:52;32.00;;;22.83;;
54201;SDS011;40108;53.152;5.844;2024-01-30T03:53:18;34.92;;;23.85;;
54201;SDS011;40108;53.152;5.844;2024-01-30T03:55:44;32.03;;;22.88;;
54201;SDS011;40108;53.152;5.844;2024-01-30T03:58:09;32.40;;;23.00;;
54201;SDS011;40108;53.152;5.844;2024-01-30T04:00:35;33.60;;;22.70;;
54201;SDS011;40108;53.152;5.844;2024-01-30T04:03:01;32.75;;;22.73;;
54201;SDS011;40108;53.152;5.844;2024-01-30T04:05:26;31.60;;;23.00;;
54201;SDS011;40108;53.152;5.844;2024-01-30T04:07:52;38.17;;;23.65;;
54201;SDS011;40108;53.152;5.844;2024-01-30T04:10:18;34.50;;;23.75;;
54201;SDS011;40108;53.152;5.844;2024-01-30T04:12:43;32.65;;;22.88;;
54201;SDS011;40108;53.152;5.844;2024-01-30T04:15:09;30.73;;;23.02;;
54201;SDS011;40108;53.152;5.844;2024-01-30T04:17:35;30.80;;;21.67;;
54201;SDS011;40108;53.152;5.844;2024-01-30T04:20:00;29.42;;;21.58;;
54201;SDS011;40108;53.152;5.844;2024-01-30T04:22:26;31.25;;;21.83;;
54201;SDS011;40108;53.152;5.844;2024-01-30T04:24:52;31.88;;;22.15;;
54201;SDS011;40108;53.152;5.844;2024-01-30T04:27:17;26.17;;;20.77;;
54201;SDS011;40108;53.152;5.844;2024-01-30T04:29:43;27.63;;;21.42;;
54201;SDS011;40108;53.152;5.844;2024-01-30T04:32:09;32.38;;;22.35;;
54201;SDS011;40108;53.152;5.844;2024-01-30T04:34:36;31.85;;;21.70;;
54201;SDS011;40108;53.152;5.844;2024-01-30T04:37:02;29.88;;;21.10;;
54201;SDS011;40108;53.152;5.844;2024-01-30T04:39:28;28.95;;;20.85;;
54201;SDS011;40108;53.152;5.844;2024-01-30T04:41:53;29.77;;;20.75;;
54201;SDS011;40108;53.152;5.844;2024-01-30T04:44:19;29.23;;;20.65;;
54201;SDS011;40108;53.152;5.844;2024-01-30T04:46:45;29.92;;;20.60;;
54201;SDS011;40108;53.152;5.844;2024-01-30T04:49:10;27.90;;;20.58;;
54201;SDS011;40108;53.152;5.844;2024-01-30T04:51:36;24.80;;;19.98;;
54201;SDS011;40108;53.152;5.844;2024-01-30T04:54:02;30.50;;;21.50;;
54201;SDS011;40108;53.152;5.844;2024-01-30T04:56:27;29.95;;;20.40;;
54201;SDS011;40108;53.152;5.844;2024-01-30T04:58:53;26.85;;;20.55;;
54201;SDS011;40108;53.152;5.844;2024-01-30T05:01:19;29.38;;;20.48;;
54201;SDS011;40108;53.152;5.844;2024-01-30T05:03:44;29.20;;;21.45;;
54201;SDS011;40108;53.152;5.844;2024-01-30T05:06:10;31.70;;;20.52;;
54201;SDS011;40108;53.152;5.844;2024-01-30T05:08:36;26.33;;;19.40;;
54201;SDS011;40108;53.152;5.844;2024-01-30T05:11:02;27.25;;;20.15;;
54201;SDS011;40108;53.152;5.844;2024-01-30T05:13:31;29.08;;;20.77;;
54201;SDS011;40108;53.152;5.844;2024-01-30T05:15:56;26.15;;;20.23;;
54201;SDS011;40108;53.152;5.844;2024-01-30T05:18:22;30.38;;;22.00;;
54201;SDS011;40108;53.152;5.844;2024-01-30T05:20:49;30.15;;;22.08;;
54201;SDS011;40108;53.152;5.844;2024-01-30T05:23:15;30.15;;;22.40;;
54201;SDS011;40108;53.152;5.844;2024-01-30T05:25:41;28.83;;;19.73;;
54201;SDS011;40108;53.152;5.844;2024-01-30T05:28:07;27.15;;;19.42;;
54201;SDS011;40108;53.152;5.844;2024-01-30T05:30:33;25.85;;;19.05;;
54201;SDS011;40108;53.152;5.844;2024-01-30T05:32:58;26.15;;;19.30;;
54201;SDS011;40108;53.152;5.844;2024-01-30T05:35:24;28.05;;;18.88;;
54201;SDS011;40108;53.152;5.844;2024-01-30T05:37:50;26.35;;;18.88;;
54201;SDS011;40108;53.152;5.844;2024-01-30T05:40:16;26.15;;;18.75;;
54201;SDS011;40108;53.152;5.844;2024-01-30T05:42:42;27.25;;;18.92;;
54201;SDS011;40108;53.152;5.844;2024-01-30T05:45:08;25.42;;;18.48;;
54201;SDS011;40108;53.152;5.844;2024-01-30T05:47:34;26.35;;;18.48;;
54201;SDS011;40108;53.152;5.844;2024-01-30T05:50:00;23.90;;;18.40;;
54201;SDS011;40108;53.152;5.844;2024-01-30T05:52:26;24.25;;;18.35;;
54201;SDS011;40108;53.152;5.844;2024-01-30T05:54:51;28.80;;;17.90;;
54201;SDS011;40108;53.152;5.844;2024-01-30T05:57:17;25.70;;;19.00;;
54201;SDS011;40108;53.152;5.844;2024-01-30T05:59:43;25.70;;;17.63;;
54201;SDS011;40108;53.152;5.844;2024-01-30T06:02:12;27.13;;;18.48;;
54201;SDS011;40108;53.152;5.844;2024-01-30T06:04:38;25.30;;;17.80;;
54201;SDS011;40108;53.152;5.844;2024-01-30T06:07:04;23.33;;;16.80;;
54201;SDS011;40108;53.152;5.844;2024-01-30T06:09:31;25.38;;;18.25;;
54201;SDS011;40108;53.152;5.844;2024-01-30T06:11:57;27.88;;;18.00;;
54201;SDS011;40108;53.152;5.844;2024-01-30T06:14:23;24.85;;;18.33;;
54201;SDS011;40108;53.152;5.844;2024-01-30T06:16:49;23.05;;;16.98;;
54201;SDS011;40108;53.152;5.844;2024-01-30T06:19:15;24.13;;;18.20;;
54201;SDS011;40108;53.152;5.844;2024-01-30T06:21:41;26.60;;;17.98;;
54201;SDS011;40108;53.152;5.844;2024-01-30T06:24:06;26.10;;;18.48;;
54201;SDS011;40108;53.152;5.844;2024-01-30T06:26:32;23.67;;;17.52;;
54201;SDS011;40108;53.152;5.844;2024-01-30T06:28:59;26.95;;;18.38;;
54201;SDS011;40108;53.152;5.844;2024-01-30T06:31:24;26.98;;;17.83;;
54201;SDS011;40108;53.152;5.844;2024-01-30T06:33:50;22.48;;;17.77;;
54201;SDS011;40108;53.152;5.844;2024-01-30T06:36:16;24.17;;;17.92;;
54201;SDS011;40108;53.152;5.844;2024-01-30T06:38:41;26.70;;;17.77;;
54201;SDS011;40108;53.152;5.844;2024-01-30T06:41:07;26.70;;;17.02;;
54201;SDS011;40108;53.152;5.844;2024-01-30T06:43:33;28.08;;;18.02;;
54201;SDS011;40108;53.152;5.844;2024-01-30T06:45:58;24.58;;;18.00;;
54201;SDS011;40108;53.152;5.844;2024-01-30T06:48:24;24.98;;;17.90;;
54201;SDS011;40108;53.152;5.844;2024-01-30T06:50:52;26.70;;;18.83;;
54201;SDS011;40108;53.152;5.844;2024-01-30T06:53:19;24.88;;;17.15;;
54201;SDS011;40108;53.152;5.844;2024-01-30T06:55:44;23.48;;;16.95;;
54201;SDS011;40108;53.152;5.844;2024-01-30T06:58:10;22.83;;;16.77;;
54201;SDS011;40108;53.152;5.844;2024-01-30T07:00:36;26.13;;;17.10;;
54201;SDS011;40108;53.152;5.844;2024-01-30T07:03:02;26.27;;;17.70;;
54201;SDS011;40108;53.152;5.844;2024-01-30T07:05:28;27.20;;;17.60;;
54201;SDS011;40108;53.152;5.844;2024-01-30T07:07:53;24.48;;;17.08;;
54201;SDS011;40108;53.152;5.844;2024-01-30T07:10:19;27.17;;;17.08;;
54201;SDS011;40108;53.152;5.844;2024-01-30T07:12:45;23.15;;;17.75;;
54201;SDS011;40108;53.152;5.844;2024-01-30T07:15:10;26.08;;;16.98;;
54201;SDS011;40108;53.152;5.844;2024-01-30T07:17:37;24.20;;;16.58;;
54201;SDS011;40108;53.152;5.844;2024-01-30T07:20:03;25.02;;;17.55;;
54201;SDS011;40108;53.152;5.844;2024-01-30T07:22:29;27.98;;;17.17;;
54201;SDS011;40108;53.152;5.844;2024-01-30T07:24:56;23.88;;;17.25;;
54201;SDS011;40108;53.152;5.844;2024-01-30T07:27:21;25.10;;;17.13;;
54201;SDS011;40108;53.152;5.844;2024-01-30T07:29:47;23.23;;;16.23;;
54201;SDS011;40108;53.152;5.844;2024-01-30T07:32:13;25.15;;;16.50;;
54201;SDS011;40108;53.152;5.844;2024-01-30T07:34:40;22.30;;;16.35;;
54201;SDS011;40108;53.152;5.844;2024-01-30T07:37:05;24.08;;;16.75;;
54201;SDS011;40108;53.152;5.844;2024-01-30T07:39:33;26.38;;;17.48;;
54201;SDS011;40108;53.152;5.844;2024-01-30T07:41:59;22.92;;;17.00;;
54201;SDS011;40108;53.152;5.844;2024-01-30T07:44:25;24.10;;;16.13;;
54201;SDS011;40108;53.152;5.844;2024-01-30T07:46:51;24.80;;;16.15;;
54201;SDS011;40108;53.152;5.844;2024-01-30T07:49:16;22.95;;;16.85;;
54201;SDS011;40108;53.152;5.844;2024-01-30T07:51:42;26.70;;;16.83;;
54201;SDS011;40108;53.152;5.844;2024-01-30T07:54:15;22.65;;;16.45;;
54201;SDS011;40108;53.152;5.844;2024-01-30T07:56:40;25.13;;;16.65;;
54201;SDS011;40108;53.152;5.844;2024-01-30T07:59:10;26.75;;;17.20;;
54201;SDS011;40108;53.152;5.844;2024-01-30T08:01:36;24.13;;;16.52;;
54201;SDS011;40108;53.152;5.844;2024-01-30T08:04:02;24.73;;;16.33;;
54201;SDS011;40108;53.152;5.844;2024-01-30T08:06:28;22.67;;;15.65;;
54201;SDS011;40108;53.152;5.844;2024-01-30T08:08:53;23.55;;;16.30;;
54201;SDS011;40108;53.152;5.844;2024-01-30T08:11:22;24.20;;;16.48;;
54201;SDS011;40108;53.152;5.844;2024-01-30T08:13:52;25.40;;;17.38;;
54201;SDS011;40108;53.152;5.844;2024-01-30T08:16:18;19.85;;;15.40;;
54201;SDS011;40108;53.152;5.844;2024-01-30T08:18:44;25.00;;;16.25;;
54201;SDS011;40108;53.152;5.844;2024-01-30T08:21:09;21.45;;;15.93;;
54201;SDS011;40108;53.152;5.844;2024-01-30T08:23:35;27.13;;;15.80;;
54201;SDS011;40108;53.152;5.844;2024-01-30T08:26:00;26.15;;;16.70;;
54201;SDS011;40108;53.152;5.844;2024-01-30T08:28:26;25.77;;;17.98;;
54201;SDS011;40108;53.152;5.844;2024-01-30T08:30:55;25.17;;;16.88;;
54201;SDS011;40108;53.152;5.844;2024-01-30T08:33:20;24.67;;;16.38;;
54201;SDS011;40108;53.152;5.844;2024-01-30T08:35:46;25.02;;;16.35;;
54201;SDS011;40108;53.152;5.844;2024-01-30T08:38:12;24.77;;;17.08;;
54201;SDS011;40108;53.152;5.844;2024-01-30T08:40:37;25.98;;;16.50;;
54201;SDS011;40108;53.152;5.844;2024-01-30T08:43:03;29.98;;;17.23;;
54201;SDS011;40108;53.152;5.844;2024-01-30T08:45:29;24.73;;;15.93;;
54201;SDS011;40108;53.152;5.844;2024-01-30T08:47:55;25.02;;;16.38;;
54201;SDS011;40108;53.152;5.844;2024-01-30T08:50:21;28.13;;;15.27;;
54201;SDS011;40108;53.152;5.844;2024-01-30T08:52:47;25.30;;;16.05;;
54201;SDS011;40108;53.152;5.844;2024-01-30T08:55:13;23.17;;;16.13;;
54201;SDS011;40108;53.152;5.844;2024-01-30T08:57:39;23.08;;;15.68;;
54201;SDS011;40108;53.152;5.844;2024-01-30T09:00:04;21.95;;;15.00;;
54201;SDS011;40108;53.152;5.844;2024-01-30T09:02:32;23.23;;;15.23;;
54201;SDS011;40108;53.152;5.844;2024-01-30T09:04:58;22.77;;;14.07;;
54201;SDS011;40108;53.152;5.844;2024-01-30T09:07:23;24.02;;;15.30;;
54201;SDS011;40108;53.152;5.844;2024-01-30T09:09:49;27.27;;;15.55;;
54201;SDS011;40108;53.152;5.844;2024-01-30T09:12:15;23.70;;;14.55;;
54201;SDS011;40108;53.152;5.844;2024-01-30T09:14:41;24.17;;;14.65;;
54201;SDS011;40108;53.152;5.844;2024-01-30T09:17:06;23.13;;;15.10;;
54201;SDS011;40108;53.152;5.844;2024-01-30T09:19:33;28.13;;;14.85;;
54201;SDS011;40108;53.152;5.844;2024-01-30T09:21:58;29.08;;;14.77;;
54201;SDS011;40108;53.152;5.844;2024-01-30T09:24:25;20.20;;;14.55;;
54201;SDS011;40108;53.152;5.844;2024-01-30T09:26:51;23.95;;;14.45;;
54201;SDS011;40108;53.152;5.844;2024-01-30T09:29:17;21.85;;;13.77;;
54201;SDS011;40108;53.152;5.844;2024-01-30T09:31:43;26.52;;;14.30;;
54201;SDS011;40108;53.152;5.844;2024-01-30T09:34:12;23.23;;;14.45;;
54201;SDS011;40108;53.152;5.844;2024-01-30T09:36:39;24.23;;;14.80;;
54201;SDS011;40108;53.152;5.844;2024-01-30T09:39:04;20.85;;;13.73;;
54201;SDS011;40108;53.152;5.844;2024-01-30T09:41:38;21.98;;;14.27;;
54201;SDS011;40108;53.152;5.844;2024-01-30T09:44:25;20.95;;;14.10;;
54201;SDS011;40108;53.152;5.844;2024-01-30T09:46:53;24.30;;;13.38;;
54201;SDS011;40108;53.152;5.844;2024-01-30T09:49:18;20.70;;;14.00;;
54201;SDS011;40108;53.152;5.844;2024-01-30T09:51:45;24.45;;;13.80;;
54201;SDS011;40108;53.152;5.844;2024-01-30T09:54:13;28.40;;;14.27;;
54201;SDS011;40108;53.152;5.844;2024-01-30T09:56:40;20.60;;;13.68;;
54201;SDS011;40108;53.152;5.844;2024-01-30T09:59:06;18.55;;;13.27;;
54201;SDS011;40108;53.152;5.844;2024-01-30T10:01:31;21.65;;;14.20;;
54201;SDS011;40108;53.152;5.844;2024-01-30T10:04:00;23.15;;;14.13;;
54201;SDS011;40108;53.152;5.844;2024-01-30T10:06:26;25.88;;;14.38;;
54201;SDS011;40108;53.152;5.844;2024-01-30T10:08:52;21.58;;;14.50;;
54201;SDS011;40108;53.152;5.844;2024-01-30T10:11:18;20.27;;;13.77;;
54201;SDS011;40108;53.152;5.844;2024-01-30T10:13:44;22.80;;;12.93;;
54201;SDS011;40108;53.152;5.844;2024-01-30T10:16:09;21.25;;;12.25;;
54201;SDS011;40108;53.152;5.844;2024-01-30T10:18:35;21.85;;;12.25;;
54201;SDS011;40108;53.152;5.844;2024-01-30T10:21:01;17.35;;;11.07;;
54201;SDS011;40108;53.152;5.844;2024-01-30T10:23:26;22.45;;;10.90;;
54201;SDS011;40108;53.152;5.844;2024-01-30T10:25:52;22.10;;;9.63;;
54201;SDS011;40108;53.152;5.844;2024-01-30T10:28:18;17.90;;;8.95;;
54201;SDS011;40108;53.152;5.844;2024-01-30T10:30:44;16.50;;;8.90;;
54201;SDS011;40108;53.152;5.844;2024-01-30T10:33:09;17.92;;;7.63;;
54201;SDS011;40108;53.152;5.844;2024-01-30T10:35:35;20.65;;;7.85;;
54201;SDS011;40108;53.152;5.844;2024-01-30T10:38:01;17.30;;;7.32;;
54201;SDS011;40108;53.152;5.844;2024-01-30T10:40:27;19.48;;;7.25;;
54201;SDS011;40108;53.152;5.844;2024-01-30T10:42:55;17.67;;;5.88;;
54201;SDS011;40108;53.152;5.844;2024-01-30T10:45:21;11.70;;;4.50;;
54201;SDS011;40108;53.152;5.844;2024-01-30T10:47:52;15.43;;;4.53;;
54201;SDS011;40108;53.152;5.844;2024-01-30T10:50:21;12.50;;;2.70;;
54201;SDS011;40108;53.152;5.844;2024-01-30T10:52:49;7.45;;;2.03;;
54201;SDS011;40108;53.152;5.844;2024-01-30T10:55:16;8.35;;;1.58;;
54201;SDS011;40108;53.152;5.844;2024-01-30T10:57:43;7.80;;;1.60;;
54201;SDS011;40108;53.152;5.844;2024-01-30T11:00:10;7.00;;;1.20;;
54201;SDS011;40108;53.152;5.844;2024-01-30T11:02:44;6.10;;;1.20;;
54201;SDS011;40108;53.152;5.844;2024-01-30T11:05:10;3.67;;;1.00;;
54201;SDS011;40108;53.152;5.844;2024-01-30T11:07:38;5.63;;;1.10;;
54201;SDS011;40108;53.152;5.844;2024-01-30T11:10:05;6.05;;;1.05;;
54201;SDS011;40108;53.152;5.844;2024-01-30T11:12:37;3.90;;;0.90;;
54201;SDS011;40108;53.152;5.844;2024-01-30T11:15:06;5.60;;;1.10;;
54201;SDS011;40108;53.152;5.844;2024-01-30T11:22:52;8.93;;;1.70;;
54201;SDS011;40108;53.152;5.844;2024-01-30T11:25:20;9.27;;;1.60;;
54201;SDS011;40108;53.152;5.844;2024-01-30T11:27:46;8.93;;;1.70;;
54201;SDS011;40108;53.152;5.844;2024-01-30T11:30:24;8.57;;;2.10;;
54201;SDS011;40108;53.152;5.844;2024-01-30T11:33:04;8.75;;;1.95;;
54201;SDS011;40108;53.152;5.844;2024-01-30T11:35:34;6.88;;;2.28;;
54201;SDS011;40108;53.152;5.844;2024-01-30T11:38:01;12.90;;;2.45;;
54201;SDS011;40108;53.152;5.844;2024-01-30T11:40:28;8.30;;;2.13;;
54201;SDS011;40108;53.152;5.844;2024-01-30T11:42:59;9.50;;;2.53;;
54201;SDS011;40108;53.152;5.844;2024-01-30T11:45:26;9.80;;;2.00;;
54201;SDS011;40108;53.152;5.844;2024-01-30T11:47:55;9.30;;;2.08;;
54201;SDS011;40108;53.152;5.844;2024-01-30T11:50:21;8.30;;;2.00;;
54201;SDS011;40108;53.152;5.844;2024-01-30T11:52:48;13.75;;;2.83;;
54201;SDS011;40108;53.152;5.844;2024-01-30T11:55:14;11.20;;;2.03;;
54201;SDS011;40108;53.152;5.844;2024-01-30T11:57:40;9.00;;;2.33;;
54201;SDS011;40108;53.152;5.844;2024-01-30T12:00:06;6.40;;;1.58;;
54201;SDS011;40108;53.152;5.844;2024-01-30T12:02:39;9.55;;;1.70;;
54201;SDS011;40108;53.152;5.844;2024-01-30T12:05:06;9.68;;;1.80;;
54201;SDS011;40108;53.152;5.844;2024-01-30T12:07:32;9.13;;;1.85;;
54201;SDS011;40108;53.152;5.844;2024-01-30T12:09:58;9.35;;;1.67;;
54201;SDS011;40108;53.152;5.844;2024-01-30T12:12:27;5.40;;;1.30;;
54201;SDS011;40108;53.152;5.844;2024-01-30T12:14:54;7.65;;;1.70;;
54201;SDS011;40108;53.152;5.844;2024-01-30T12:17:30;10.43;;;2.13;;
54201;SDS011;40108;53.152;5.844;2024-01-30T12:20:06;8.13;;;1.58;;
54201;SDS011;40108;53.152;5.844;2024-01-30T12:22:38;6.85;;;1.63;;
54201;SDS011;40108;53.152;5.844;2024-01-30T12:25:11;9.35;;;2.05;;
54201;SDS011;40108;53.152;5.844;2024-01-30T12:27:38;7.93;;;2.15;;
54201;SDS011;40108;53.152;5.844;2024-01-30T12:30:14;11.43;;;2.25;;
54201;SDS011;40108;53.152;5.844;2024-01-30T12:32:40;10.40;;;2.50;;
54201;SDS011;40108;53.152;5.844;2024-01-30T12:35:19;8.02;;;2.03;;
54201;SDS011;40108;53.152;5.844;2024-01-30T12:37:46;9.10;;;1.92;;
54201;SDS011;40108;53.152;5.844;2024-01-30T12:40:16;8.23;;;1.70;;
54201;SDS011;40108;53.152;5.844;2024-01-30T12:42:42;6.55;;;1.85;;
54201;SDS011;40108;53.152;5.844;2024-01-30T12:45:11;6.47;;;1.88;;
54201;SDS011;40108;53.152;5.844;2024-01-30T12:47:38;7.93;;;1.85;;
54201;SDS011;40108;53.152;5.844;2024-01-30T12:50:04;7.63;;;1.90;;
54201;SDS011;40108;53.152;5.844;2024-01-30T12:52:30;7.75;;;1.73;;
54201;SDS011;40108;53.152;5.844;2024-01-30T12:54:55;9.98;;;1.60;;
54201;SDS011;40108;53.152;5.844;2024-01-30T12:57:21;7.88;;;1.50;;
54201;SDS011;40108;53.152;5.844;2024-01-30T12:59:47;8.98;;;1.98;;
54201;SDS011;40108;53.152;5.844;2024-01-30T13:02:13;7.07;;;2.10;;
54201;SDS011;40108;53.152;5.844;2024-01-30T13:04:39;7.97;;;1.92;;
54201;SDS011;40108;53.152;5.844;2024-01-30T13:07:05;8.30;;;1.92;;
54201;SDS011;40108;53.152;5.844;2024-01-30T13:09:30;10.43;;;2.63;;
54201;SDS011;40108;53.152;5.844;2024-01-30T13:11:58;10.07;;;2.90;;
54201;SDS011;40108;53.152;5.844;2024-01-30T13:14:27;6.85;;;3.00;;
54201;SDS011;40108;53.152;5.844;2024-01-30T13:16:53;12.77;;;4.00;;
54201;SDS011;40108;53.152;5.844;2024-01-30T13:19:19;8.32;;;3.58;;
54201;SDS011;40108;53.152;5.844;2024-01-30T13:21:44;7.75;;;3.67;;
54201;SDS011;40108;53.152;5.844;2024-01-30T13:24:10;8.98;;;4.22;;
54201;SDS011;40108;53.152;5.844;2024-01-30T13:26:36;9.95;;;4.25;;
54201;SDS011;40108;53.152;5.844;2024-01-30T13:29:02;11.50;;;4.60;;
54201;SDS011;40108;53.152;5.844;2024-01-30T13:31:28;9.05;;;4.30;;
54201;SDS011;40108;53.152;5.844;2024-01-30T13:33:54;11.35;;;4.13;;
54201;SDS011;40108;53.152;5.844;2024-01-30T13:36:20;9.90;;;4.75;;
54201;SDS011;40108;53.152;5.844;2024-01-30T13:38:47;12.48;;;4.28;;
54201;SDS011;40108;53.152;5.844;2024-01-30T13:41:12;10.70;;;3.90;;
54201;SDS011;40108;53.152;5.844;2024-01-30T13:43:38;9.95;;;4.20;;
54201;SDS011;40108;53.152;5.844;2024-01-30T13:46:04;14.02;;;4.85;;
54201;SDS011;40108;53.152;5.844;2024-01-30T13:48:31;15.27;;;4.60;;
54201;SDS011;40108;53.152;5.844;2024-01-30T13:50:56;12.82;;;4.57;;
54201;SDS011;40108;53.152;5.844;2024-01-30T13:53:22;13.63;;;4.30;;
54201;SDS011;40108;53.152;5.844;2024-01-30T13:55:48;10.30;;;3.55;;
54201;SDS011;40108;53.152;5.844;2024-01-30T13:58:14;12.00;;;3.63;;
54201;SDS011;40108;53.152;5.844;2024-01-30T14:00:39;10.05;;;3.63;;
54201;SDS011;40108;53.152;5.844;2024-01-30T14:03:05;12.65;;;4.47;;
54201;SDS011;40108;53.152;5.844;2024-01-30T14:05:31;13.55;;;4.05;;
54201;SDS011;40108;53.152;5.844;2024-01-30T14:07:57;12.13;;;3.78;;
54201;SDS011;40108;53.152;5.844;2024-01-30T14:10:24;9.60;;;3.35;;
54201;SDS011;40108;53.152;5.844;2024-01-30T14:12:50;11.85;;;3.60;;
54201;SDS011;40108;53.152;5.844;2024-01-30T14:15:16;14.18;;;3.50;;
54201;SDS011;40108;53.152;5.844;2024-01-30T14:17:45;8.23;;;3.35;;
54201;SDS011;40108;53.152;5.844;2024-01-30T14:20:13;9.32;;;3.25;;
54201;SDS011;40108;53.152;5.844;2024-01-30T14:22:39;7.60;;;3.00;;
54201;SDS011;40108;53.152;5.844;2024-01-30T14:25:05;10.18;;;3.35;;
54201;SDS011;40108;53.152;5.844;2024-01-30T14:27:31;9.45;;;2.78;;
54201;SDS011;40108;53.152;5.844;2024-01-30T14:29:58;11.00;;;3.30;;